Time;durP1;ratioP1;P1;durP2;ratioP2;P2;SDS_P1;SDS_P2;PMS_P1;PMS_P2;Temp;Humidity;BMP_temperature;BMP_pressure;BME280_temperature;BME280_humidity;BME280_pressure;Samples;Min_cycle;Max_cycle;Signal;HPM_P1;HPM_P2
2021/07/29 00:00:33;;;;;;;27.60;13.50;;;;;;;16.98;78.44;99345.25;5067917;28;20573;-74
2021/07/29 00:02:59;;;;;;;21.23;13.80;;;;;;;16.83;79.10;99347.75;5067815;28;20032;-76
2021/07/29 00:05:26;;;;;;;19.33;12.57;;;;;;;16.67;80.16;99339.81;5067401;28;20021;-76
2021/07/29 00:07:52;;;;;;;17.80;11.90;;;;;;;16.58;80.45;99328.03;5066276;28;20029;-75
2021/07/29 00:10:18;;;;;;;14.05;9.95;;;;;;;16.46;81.23;99320.78;5066100;28;20460;-75
2021/07/29 00:12:43;;;;;;;13.63;9.50;;;;;;;16.44;81.35;99327.88;5067521;28;20481;-77
2021/07/29 00:15:11;;;;;;;15.82;10.63;;;;;;;16.36;82.06;99320.41;5067823;28;20025;-77
2021/07/29 00:20:42;;;;;;;15.98;10.85;;;;;;;16.40;82.48;99331.59;5068000;28;20029;-79
2021/07/29 00:23:08;;;;;;;16.23;11.15;;;;;;;16.38;82.95;99320.31;5061557;28;20100;-81
2021/07/29 00:25:33;;;;;;;22.00;14.20;;;;;;;16.26;83.46;99314.81;5065952;28;20032;-82
2021/07/29 00:27:59;;;;;;;22.92;15.68;;;;;;;16.26;83.69;99306.09;5065740;28;20473;-81
2021/07/29 00:30:25;;;;;;;21.88;14.02;;;;;;;16.28;84.00;99312.09;5067141;28;20036;-80
2021/07/29 00:32:53;;;;;;;21.48;14.50;;;;;;;16.25;84.05;99313.09;5067093;28;20108;-80
2021/07/29 00:35:19;;;;;;;23.65;14.98;;;;;;;16.27;84.22;99324.34;5065163;28;20049;-79
2021/07/29 00:37:49;;;;;;;24.55;15.45;;;;;;;16.28;84.25;99320.78;5067024;28;20465;-78
2021/07/29 00:40:20;;;;;;;20.85;13.25;;;;;;;16.27;84.78;99326.09;5066951;28;20458;-79
2021/07/29 00:42:45;;;;;;;21.98;13.35;;;;;;;16.25;85.02;99313.09;5066717;28;20481;-78
2021/07/29 00:45:11;;;;;;;24.75;15.43;;;;;;;16.23;85.01;99307.06;5066947;28;20076;-76
2021/07/29 00:47:40;;;;;;;28.40;15.15;;;;;;;16.13;85.42;99292.75;5065480;28;20345;-75
2021/07/29 00:50:06;;;;;;;31.60;16.98;;;;;;;16.14;85.84;99308.38;5066724;28;20028;-73
2021/07/29 00:52:32;;;;;;;27.75;14.23;;;;;;;16.06;86.20;99298.31;5066837;28;20051;-76
2021/07/29 00:54:58;;;;;;;24.42;13.27;;;;;;;15.93;86.74;99298.00;5065115;28;20493;-73
2021/07/29 00:57:23;;;;;;;22.30;11.13;;;;;;;15.84;86.96;99278.38;5065240;28;20013;-75
2021/07/29 00:59:49;;;;;;;18.25;12.60;;;;;;;15.84;87.38;99275.78;5066651;28;20036;-75
2021/07/29 01:02:15;;;;;;;20.80;11.73;;;;;;;15.79;87.85;99269.91;5066567;28;20071;-74
2021/07/29 01:04:40;;;;;;;27.00;13.25;;;;;;;15.69;88.28;99285.19;5066238;28;20021;-74
2021/07/29 01:07:06;;;;;;;29.05;12.52;;;;;;;15.71;88.50;99287.75;5066478;28;20025;-74
2021/07/29 01:09:31;;;;;;;21.95;10.05;;;;;;;15.69;88.36;99282.56;5066305;28;20384;-73
2021/07/29 01:11:57;;;;;;;21.80;10.68;;;;;;;15.64;88.73;99275.88;5066097;28;20069;-73
2021/07/29 01:14:22;;;;;;;0.20;0.20;;;;;;;15.66;88.94;99279.25;5066329;28;20110;-72
2021/07/29 01:16:47;;;;;;;0.20;0.20;;;;;;;15.67;89.04;99265.28;5066405;28;20032;-73
2021/07/29 01:19:13;;;;;;;0.20;0.20;;;;;;;15.66;89.10;99268.78;5066456;28;20115;-73
2021/07/29 01:21:40;;;;;;;0.20;0.20;;;;;;;15.67;89.21;99271.34;5066192;28;20094;-73
2021/07/29 01:24:06;;;;;;;1.65;1.55;;;;;;;15.63;89.46;99263.72;5066356;28;20037;-72
2021/07/29 01:26:32;;;;;;;0.20;0.20;;;;;;;15.65;89.76;99262.72;5064518;28;20141;-74
2021/07/29 01:28:59;;;;;;;0.20;0.20;;;;;;;15.66;89.76;99266.16;5064546;28;20029;-73
2021/07/29 01:31:28;;;;;;;0.15;0.15;;;;;;;15.63;89.77;99255.84;5066093;28;20087;-73
2021/07/29 01:33:57;;;;;;;0.20;0.20;;;;;;;15.65;89.83;99251.41;5066109;28;20028;-71
2021/07/29 01:36:23;;;;;;;0.20;0.20;;;;;;;15.61;89.92;99256.78;5065866;28;20044;-71
2021/07/29 01:38:49;;;;;;;0.20;0.20;;;;;;;15.59;90.00;99256.00;5065674;28;20020;-73
2021/07/29 01:41:14;;;;;;;0.10;0.10;;;;;;;15.59;90.05;99253.38;5065392;28;20029;-72
2021/07/29 01:43:40;;;;;;;0.20;0.20;;;;;;;15.60;89.94;99260.34;5066057;28;20021;-71
2021/07/29 01:46:05;;;;;;;0.30;0.30;;;;;;;15.60;90.15;99259.47;5064573;28;20504;-71
2021/07/29 01:48:34;;;;;;;0.40;0.40;;;;;;;15.60;90.45;99268.19;5065638;28;20028;-71
2021/07/29 01:50:59;;;;;;;0.20;0.20;;;;;;;15.61;90.56;99267.25;5064413;28;20024;-72
2021/07/29 01:53:25;;;;;;;0.20;0.20;;;;;;;15.61;90.60;99266.41;5065725;28;20021;-73
2021/07/29 01:55:50;;;;;;;0.20;0.20;;;;;;;15.64;90.68;99260.19;5065552;28;20029;-70
2021/07/29 01:58:17;;;;;;;0.20;0.20;;;;;;;15.67;90.74;99260.88;5065668;28;20021;-71
2021/07/29 02:00:45;;;;;;;0.20;0.20;;;;;;;15.68;90.69;99256.50;5065657;28;20036;-70
2021/07/29 02:03:11;;;;;;;0.20;0.20;;;;;;;15.67;91.01;99249.56;5065801;28;20027;-72
2021/07/29 02:05:36;;;;;;;0.20;0.20;;;;;;;15.70;91.08;99244.19;5065642;28;20048;-72
2021/07/29 02:08:02;;;;;;;0.20;0.20;;;;;;;15.71;90.79;99236.28;5065311;28;20465;-71
2021/07/29 02:10:28;;;;;;;0.20;0.20;;;;;;;15.67;90.87;99232.09;5065339;28;20040;-71
2021/07/29 02:12:55;;;;;;;5.38;4.22;;;;;;;15.69;91.25;99232.00;5065283;28;20029;-71
2021/07/29 02:15:21;;;;;;;0.20;0.20;;;;;;;15.65;91.31;99227.88;5065459;28;20044;-73
2021/07/29 02:17:47;;;;;;;5.90;2.83;;;;;;;15.68;91.33;99225.09;5067351;28;20033;-71
2021/07/29 02:20:13;;;;;;;0.32;0.32;;;;;;;15.68;91.26;99235.56;5068451;28;20025;-71
2021/07/29 02:22:39;;;;;;;2.50;2.30;;;;;;;15.68;91.52;99225.09;5069630;28;20033;-72
2021/07/29 02:25:06;;;;;;;0.20;0.20;;;;;;;15.69;91.74;99219.78;5069603;28;20027;-70
2021/07/29 02:27:32;;;;;;;0.22;0.22;;;;;;;15.68;91.64;99218.09;5069169;28;20068;-71
2021/07/29 02:29:58;;;;;;;0.20;0.20;;;;;;;15.68;91.90;99194.56;5069533;28;20025;-71
2021/07/29 02:32:24;;;;;;;0.20;0.20;;;;;;;15.73;91.83;99207.41;5069309;28;20346;-71
2021/07/29 02:34:50;;;;;;;0.63;0.63;;;;;;;15.77;92.02;99203.72;5067375;28;20044;-71
2021/07/29 02:37:15;;;;;;;0.20;0.20;;;;;;;15.80;92.04;99197.50;5069258;28;20067;-72
2021/07/29 02:39:41;;;;;;;0.70;0.70;;;;;;;15.80;92.11;99190.47;5069177;28;20021;-71
2021/07/29 02:42:09;;;;;;;0.20;0.20;;;;;;;15.83;92.34;99197.34;5067386;28;20523;-72
2021/07/29 02:44:35;;;;;;;0.20;0.20;;;;;;;15.83;92.21;99200.78;5069283;28;20469;-73
2021/07/29 02:47:02;;;;;;;18.95;1.13;;;;;;;15.85;92.11;99201.56;5069219;28;20033;-73
2021/07/29 02:49:27;;;;;;;0.20;0.20;;;;;;;15.88;92.19;99205.78;5067560;28;20096;-72
2021/07/29 02:51:53;;;;;;;0.20;0.20;;;;;;;15.90;92.47;99197.84;5068815;28;20056;-73
2021/07/29 02:54:18;;;;;;;0.17;0.17;;;;;;;15.94;92.15;99196.78;5068769;28;20470;-72
2021/07/29 02:56:44;;;;;;;0.20;0.20;;;;;;;15.95;92.42;99196.72;5067480;28;20021;-73
2021/07/29 02:59:09;;;;;;;0.20;0.20;;;;;;;15.98;92.79;99201.84;5068668;28;20330;-73
2021/07/29 03:01:35;;;;;;;0.20;0.20;;;;;;;16.05;92.64;99196.28;5068822;28;20020;-73
2021/07/29 03:04:00;;;;;;;0.30;0.30;;;;;;;16.10;92.50;99195.09;5068900;28;20485;-73
2021/07/29 03:06:25;;;;;;;4.50;2.60;;;;;;;16.16;92.72;99191.34;5068850;28;20040;-72
2021/07/29 03:08:51;;;;;;;0.43;0.43;;;;;;;16.19;92.64;99180.72;5068655;28;20568;-73
2021/07/29 03:11:16;;;;;;;0.10;0.10;;;;;;;16.26;92.73;99183.88;5067088;28;20051;-73
2021/07/29 03:13:42;;;;;;;0.20;0.20;;;;;;;16.30;92.69;99168.81;5068583;28;20025;-73
2021/07/29 03:16:07;;;;;;;0.20;0.20;;;;;;;16.32;92.58;99174.84;5067237;28;20032;-74
2021/07/29 03:18:33;;;;;;;0.20;0.20;;;;;;;16.40;92.67;99183.16;5068626;28;20025;-74
2021/07/29 03:20:58;;;;;;;0.30;0.30;;;;;;;16.42;92.33;99177.81;5067328;28;20032;-73
2021/07/29 03:23:24;;;;;;;1.23;1.23;;;;;;;16.43;92.42;99171.66;5068445;28;20029;-73
2021/07/29 03:25:52;;;;;;;0.57;0.57;;;;;;;16.45;92.64;99185.53;5068277;28;20025;-73
2021/07/29 03:28:18;;;;;;;0.50;0.50;;;;;;;16.47;92.29;99181.03;5066544;28;20044;-73
2021/07/29 03:30:44;;;;;;;0.73;0.73;;;;;;;16.43;92.40;99177.75;5068156;28;20059;-73
2021/07/29 03:33:10;;;;;;;0.20;0.20;;;;;;;16.41;91.96;99173.50;5068306;28;20044;-73
2021/07/29 03:35:38;;;;;;;0.10;0.10;;;;;;;16.35;92.22;99174.69;5066475;28;20048;-74
2021/07/29 03:38:05;;;;;;;0.20;0.20;;;;;;;16.31;92.04;99175.78;5067883;28;20017;-73
2021/07/29 03:40:31;;;;;;;0.38;0.38;;;;;;;16.27;92.01;99179.47;5067803;28;20036;-72
2021/07/29 03:42:59;;;;;;;1.15;1.15;;;;;;;16.25;92.05;99173.44;5068257;28;20135;-72
2021/07/29 03:45:25;;;;;;;0.20;0.20;;;;;;;16.26;91.82;99173.41;5068015;28;20025;-72
2021/07/29 03:47:50;;;;;;;0.20;0.20;;;;;;;16.25;91.90;99176.06;5067843;28;20025;-71
2021/07/29 03:50:16;;;;;;;0.20;0.20;;;;;;;16.21;92.12;99181.47;5068038;28;20074;-73
2021/07/29 03:52:41;;;;;;;0.20;0.20;;;;;;;16.24;91.76;99180.47;5068071;28;20567;-72
2021/07/29 03:55:07;;;;;;;0.20;0.20;;;;;;;16.24;92.01;99175.25;5067533;28;20025;-73
2021/07/29 03:57:32;;;;;;;0.20;0.20;;;;;;;16.27;91.86;99171.59;5067366;28;20021;-73
2021/07/29 03:59:58;;;;;;;0.20;0.20;;;;;;;16.25;92.04;99163.81;5066274;28;20527;-73
2021/07/29 04:02:23;;;;;;;0.30;0.30;;;;;;;16.26;91.67;99162.94;5066370;28;20032;-72
2021/07/29 04:04:49;;;;;;;0.20;0.20;;;;;;;16.23;91.67;99157.81;5067328;28;20021;-73
2021/07/29 04:07:14;;;;;;;0.55;0.55;;;;;;;16.28;91.67;99160.22;5067685;28;20036;-73
2021/07/29 04:09:40;;;;;;;0.65;0.65;;;;;;;16.28;91.93;99163.66;5067585;28;20043;-72
2021/07/29 04:12:05;;;;;;;1.42;1.40;;;;;;;16.31;91.90;99160.88;5067254;28;20080;-73
2021/07/29 04:14:31;;;;;;;0.30;0.30;;;;;;;16.28;91.75;99168.91;5067262;28;20048;-71
2021/07/29 04:16:57;;;;;;;0.20;0.20;;;;;;;16.27;91.66;99159.38;5065880;28;20032;-72
2021/07/29 04:19:22;;;;;;;0.20;0.20;;;;;;;16.28;91.30;99150.56;5067244;28;20028;-74
2021/07/29 04:21:48;;;;;;;0.20;0.20;;;;;;;16.34;91.84;99163.34;5067231;28;20093;-74
2021/07/29 04:24:14;;;;;;;0.20;0.20;;;;;;;16.34;91.64;99155.50;5066984;28;20021;-73
2021/07/29 04:26:40;;;;;;;0.20;0.20;;;;;;;16.30;91.59;99151.34;5066669;28;20028;-73
2021/07/29 04:29:06;;;;;;;1.95;1.85;;;;;;;16.34;91.54;99150.25;5066046;28;20408;-73
2021/07/29 04:31:32;;;;;;;0.20;0.20;;;;;;;16.32;91.28;99153.88;5067214;28;20504;-73
2021/07/29 04:33:57;;;;;;;0.38;0.38;;;;;;;16.30;91.56;99147.88;5065713;28;20032;-74
2021/07/29 04:36:22;;;;;;;0.30;0.30;;;;;;;16.38;91.55;99148.31;5066788;28;20048;-73
2021/07/29 04:38:48;;;;;;;0.20;0.20;;;;;;;16.35;91.49;99145.88;5067099;28;20037;-72
2021/07/29 04:41:13;;;;;;;0.20;0.20;;;;;;;16.34;91.56;99139.78;5066262;28;20021;-72
2021/07/29 04:43:38;;;;;;;0.28;0.28;;;;;;;16.31;91.44;99144.34;5067151;28;20487;-74
2021/07/29 04:46:04;;;;;;;1.40;0.80;;;;;;;16.34;91.40;99146.81;5067072;28;20032;-72
2021/07/29 04:48:30;;;;;;;0.40;0.40;;;;;;;16.39;91.81;99152.63;5065608;28;20017;-72
2021/07/29 04:51:02;;;;;;;0.20;0.20;;;;;;;16.38;91.64;99144.84;5066938;28;20031;-73
2021/07/29 04:53:27;;;;;;;0.20;0.20;;;;;;;16.36;91.51;99150.16;5066766;28;20110;-73
2021/07/29 04:55:52;;;;;;;0.30;0.30;;;;;;;16.38;91.55;99150.94;5066598;28;20469;-74
2021/07/29 04:58:18;;;;;;;0.45;0.45;;;;;;;16.42;91.50;99144.59;5066844;28;20041;-74
2021/07/29 05:00:43;;;;;;;0.63;0.63;;;;;;;16.41;91.41;99147.31;5066316;28;20040;-76
2021/07/29 05:03:08;;;;;;;0.73;0.73;;;;;;;16.45;91.58;99146.22;5066552;28;20023;-75
2021/07/29 05:05:34;;;;;;;0.20;0.20;;;;;;;16.47;91.60;99142.59;5066481;28;20078;-76
2021/07/29 05:07:59;;;;;;;0.20;0.20;;;;;;;16.46;91.32;99140.91;5064947;28;20021;-77
2021/07/29 05:10:24;;;;;;;1.27;1.27;;;;;;;16.45;91.35;99136.56;5066788;28;20020;-76
2021/07/29 05:12:50;;;;;;;0.20;0.20;;;;;;;16.39;90.91;99129.06;5066241;28;20025;-75
2021/07/29 05:15:15;;;;;;;1.65;1.55;;;;;;;16.26;90.89;99123.66;5066630;28;20040;-74
2021/07/29 05:17:40;;;;;;;0.20;0.20;;;;;;;16.15;90.09;99133.84;5065325;28;20409;-74
2021/07/29 05:20:07;;;;;;;0.20;0.20;;;;;;;16.12;90.52;99126.97;5066150;28;20055;-73
2021/07/29 05:22:32;;;;;;;0.20;0.20;;;;;;;15.99;90.17;99121.50;5066421;28;20035;-75
2021/07/29 05:24:57;;;;;;;0.35;0.35;;;;;;;15.86;90.39;99109.03;5066376;28;20029;-74
2021/07/29 05:27:23;;;;;;;0.20;0.20;;;;;;;15.81;90.73;99107.59;5065941;28;20025;-74
2021/07/29 05:29:48;;;;;;;0.20;0.20;;;;;;;15.78;91.13;99116.47;5065920;28;20017;-75
2021/07/29 05:32:13;;;;;;;0.20;0.20;;;;;;;15.77;90.79;99134.84;5065967;28;20108;-75
2021/07/29 05:34:39;;;;;;;0.57;0.57;;;;;;;15.57;89.88;99148.00;5066239;28;20385;-70
2021/07/29 05:37:04;;;;;;;0.20;0.20;;;;;;;15.38;89.33;99142.84;5066025;28;20040;-68
2021/07/29 05:39:33;;;;;;;0.20;0.20;;;;;;;15.16;89.49;99145.63;5065393;28;20196;-70
2021/07/29 05:41:59;;;;;;;0.20;0.20;;;;;;;14.85;89.31;99135.72;5065027;28;20055;-73
2021/07/29 05:44:24;;;;;;;0.20;0.20;;;;;;;14.72;89.74;99131.94;5065310;28;20029;-71
2021/07/29 05:46:50;;;;;;;0.20;0.20;;;;;;;14.59;89.78;99127.28;5065125;28;20088;-70
2021/07/29 05:49:15;;;;;;;0.20;0.20;;;;;;;14.46;89.67;99124.38;5065125;28;20028;-71
2021/07/29 05:51:40;;;;;;;0.20;0.20;;;;;;;14.25;89.39;99123.56;5064584;28;20465;-71
2021/07/29 05:54:06;;;;;;;0.20;0.20;;;;;;;14.05;89.78;99100.97;5063626;28;20020;-74
2021/07/29 05:56:34;;;;;;;0.30;0.30;;;;;;;13.96;90.50;99103.06;5064964;28;20480;-73
2021/07/29 05:58:59;;;;;;;0.20;0.20;;;;;;;13.91;90.65;99119.84;5063708;28;20017;-73
2021/07/29 06:01:24;;;;;;;0.20;0.20;;;;;;;13.84;90.99;99109.66;5065236;28;20048;-73
2021/07/29 06:03:50;;;;;;;0.20;0.20;;;;;;;13.85;91.32;99111.34;5065720;28;20021;-73
2021/07/29 06:06:15;;;;;;;0.20;0.20;;;;;;;13.95;91.80;99118.78;5065730;28;20032;-72
2021/07/29 06:08:40;;;;;;;0.20;0.20;;;;;;;13.94;91.91;99109.28;5065641;28;20597;-72
2021/07/29 06:11:06;;;;;;;0.20;0.20;;;;;;;14.06;92.42;99113.94;5065420;28;20031;-73
2021/07/29 06:13:31;;;;;;;0.30;0.30;;;;;;;14.35;92.76;99109.19;5065623;28;20025;-72
2021/07/29 06:16:03;;;;;;;0.20;0.20;;;;;;;14.55;92.89;99106.59;5064361;28;20059;-72
2021/07/29 06:18:29;;;;;;;2.05;1.90;;;;;;;14.63;92.73;99107.94;5065829;28;20029;-72
2021/07/29 06:20:54;;;;;;;0.20;0.20;;;;;;;14.74;93.02;99104.00;5065872;28;20112;-72
2021/07/29 06:23:19;;;;;;;0.20;0.20;;;;;;;14.89;92.81;99104.22;5065233;28;20025;-74
2021/07/29 06:25:45;;;;;;;0.20;0.20;;;;;;;14.91;92.51;99100.59;5064236;28;20025;-72
2021/07/29 06:28:15;;;;;;;0.20;0.20;;;;;;;14.90;92.28;99091.09;5065057;28;20025;-72
2021/07/29 06:30:43;;;;;;;0.20;0.20;;;;;;;14.85;91.91;99086.06;5063893;28;20013;-73
2021/07/29 06:33:09;;;;;;;0.20;0.20;;;;;;;14.84;91.88;99114.88;5097675;28;20068;-72
2021/07/29 06:35:34;;;;;;;0.20;0.20;;;;;;;14.69;90.99;99098.13;5064961;28;20041;-72
2021/07/29 06:37:59;;;;;;;0.20;0.20;;;;;;;14.54;91.21;99112.72;5064064;28;20056;-73
2021/07/29 06:40:25;;;;;;;0.20;0.20;;;;;;;14.36;91.43;99100.44;5064214;28;20048;-73
2021/07/29 06:42:50;;;;;;;0.20;0.20;;;;;;;14.35;91.96;99098.75;5065568;28;20048;-74
2021/07/29 06:45:15;;;;;;;0.75;0.75;;;;;;;14.37;92.19;99090.84;5063852;28;20025;-73
2021/07/29 06:47:41;;;;;;;0.20;0.20;;;;;;;14.37;92.75;99085.63;5065124;28;20025;-73
2021/07/29 06:50:07;;;;;;;0.20;0.20;;;;;;;14.45;92.87;99082.66;5063763;28;20049;-72
2021/07/29 06:52:32;;;;;;;0.20;0.20;;;;;;;14.62;93.10;99089.72;5065199;28;20035;-71
2021/07/29 06:54:57;;;;;;;0.20;0.20;;;;;;;14.75;93.43;99080.41;5065046;28;20381;-72
2021/07/29 06:57:23;;;;;;;0.20;0.20;;;;;;;15.01;93.49;99082.72;5065098;28;20047;-70
2021/07/29 06:59:48;;;;;;;0.20;0.20;;;;;;;15.20;93.84;99081.81;5065046;28;20063;-72
2021/07/29 07:02:14;;;;;;;0.20;0.20;;;;;;;15.33;93.74;99085.53;5065091;28;20036;-71
2021/07/29 07:04:39;;;;;;;0.20;0.20;;;;;;;15.53;94.13;99077.63;5067023;28;20021;-72
2021/07/29 07:07:12;;;;;;;0.20;0.20;;;;;;;15.77;94.19;99085.13;5068713;28;20039;-73
2021/07/29 07:09:37;;;;;;;0.63;0.63;;;;;;;16.03;94.53;99075.94;5068823;28;20184;-73
2021/07/29 07:12:03;;;;;;;0.20;0.20;;;;;;;16.27;94.30;99085.19;5068400;28;20031;-73
2021/07/29 07:14:28;;;;;;;0.10;0.10;;;;;;;16.31;94.03;99082.31;5068784;28;20021;-73
2021/07/29 07:16:53;;;;;;;0.20;0.20;;;;;;;16.10;92.35;99090.41;5068730;28;20048;-72
2021/07/29 07:19:20;;;;;;;0.20;0.20;;;;;;;15.77;91.36;99093.81;5068712;28;20029;-72
2021/07/29 07:21:45;;;;;;;0.20;0.20;;;;;;;15.57;91.70;99092.22;5068347;28;20543;-72
2021/07/29 07:24:10;;;;;;;0.20;0.20;;;;;;;15.47;92.31;99089.22;5068421;28;20033;-73
2021/07/29 07:26:36;;;;;;;0.20;0.20;;;;;;;15.39;92.26;99093.97;5068175;28;20016;-73
2021/07/29 07:29:01;;;;;;;0.20;0.20;;;;;;;15.27;92.31;99085.81;5066876;28;20028;-71
2021/07/29 07:31:27;;;;;;;0.20;0.20;;;;;;;15.18;92.62;99078.41;5068484;28;20021;-71
2021/07/29 07:33:52;;;;;;;0.15;0.15;;;;;;;15.16;92.91;99068.03;5068641;28;20116;-70
2021/07/29 07:36:20;;;;;;;0.20;0.20;;;;;;;15.13;93.32;99062.16;5067878;28;20095;-71
2021/07/29 07:38:48;;;;;;;0.20;0.20;;;;;;;15.17;93.02;99069.75;5066536;28;20028;-71
2021/07/29 07:41:14;;;;;;;0.20;0.20;;;;;;;15.16;93.48;99067.22;5066236;28;20029;-72
2021/07/29 07:43:39;;;;;;;0.20;0.20;;;;;;;15.23;93.68;99061.59;5068338;28;20029;-72
2021/07/29 07:46:05;;;;;;;0.20;0.20;;;;;;;15.61;94.52;99067.59;5066814;28;20512;-72
2021/07/29 07:48:31;;;;;;;0.20;0.20;;;;;;;15.94;94.66;99065.94;5068044;28;20029;-72
2021/07/29 07:50:57;;;;;;;0.20;0.20;;;;;;;16.52;95.38;99068.16;5066738;28;20031;-72
2021/07/29 07:53:25;;;;;;;0.20;0.20;;;;;;;17.54;96.60;99048.44;5067827;28;20029;-73
2021/07/29 07:55:52;;;;;;;0.20;0.20;;;;;;;18.37;96.32;99045.28;5067841;28;20021;-73
2021/07/29 07:58:17;;;;;;;0.20;0.20;;;;;;;18.57;94.81;99044.88;5067693;28;20084;-73
2021/07/29 08:00:43;;;;;;;0.10;0.10;;;;;;;18.44;93.13;99043.94;5067607;28;20079;-73
2021/07/29 08:03:08;;;;;;;0.10;0.10;;;;;;;18.41;93.40;99031.00;5067995;28;20108;-73
2021/07/29 08:05:33;;;;;;;0.10;0.10;;;;;;;18.55;93.23;99024.88;5066558;28;20381;-70
2021/07/29 08:08:00;;;;;;;0.20;0.20;;;;;;;18.73;93.16;99028.09;5067726;28;20032;-72
2021/07/29 08:10:27;;;;;;;0.20;0.20;;;;;;;18.78;92.34;99023.41;5068090;28;20020;-72
2021/07/29 08:12:56;;;;;;;0.20;0.20;;;;;;;18.68;91.37;99033.66;5067555;28;20107;-70
2021/07/29 08:15:21;;;;;;;0.20;0.20;;;;;;;18.56;90.84;99029.19;5066506;28;20021;-71
2021/07/29 08:17:46;;;;;;;0.20;0.20;;;;;;;18.48;90.47;99029.69;5067683;28;20032;-73
2021/07/29 08:20:12;;;;;;;0.20;0.20;;;;;;;18.59;91.40;99023.75;5067390;28;20047;-72
2021/07/29 08:22:37;;;;;;;0.10;0.10;;;;;;;18.95;91.98;99027.53;5065866;28;20035;-71
2021/07/29 08:25:03;;;;;;;0.17;0.17;;;;;;;19.66;92.52;99021.16;5067385;28;20032;-72
2021/07/29 08:27:33;;;;;;;0.13;0.13;;;;;;;20.05;91.02;99030.81;5067147;28;20029;-72
2021/07/29 08:29:59;;;;;;;0.20;0.20;;;;;;;20.17;90.13;99029.13;5067543;28;20107;-72
2021/07/29 08:32:24;;;;;;;0.10;0.10;;;;;;;20.19;89.66;99017.50;5066737;28;20032;-72
2021/07/29 08:34:49;;;;;;;0.10;0.10;;;;;;;20.45;90.81;99031.59;5066307;28;20028;-72
2021/07/29 08:37:15;;;;;;;0.10;0.10;;;;;;;20.66;90.04;99008.06;5066904;28;20085;-72
2021/07/29 08:39:40;;;;;;;0.10;0.10;;;;;;;20.80;89.25;99007.03;5065549;28;20058;-71
2021/07/29 08:42:06;;;;;;;0.10;0.10;;;;;;;20.95;88.97;99004.25;5066651;28;20453;-71
2021/07/29 08:44:31;;;;;;;3.72;2.55;;;;;;;20.92;87.96;99002.69;5065744;28;20029;-73
2021/07/29 08:46:57;;;;;;;0.10;0.10;;;;;;;20.62;86.94;99004.84;5065616;28;20021;-73
2021/07/29 08:49:26;;;;;;;0.20;0.20;;;;;;;20.21;87.14;99004.22;5066909;28;20024;-73
2021/07/29 08:51:52;;;;;;;0.10;0.10;;;;;;;19.85;86.89;99000.59;5066671;28;20021;-72
2021/07/29 08:54:17;;;;;;;0.10;0.10;;;;;;;19.54;87.50;99011.44;5066600;28;20119;-72
2021/07/29 08:56:43;;;;;;;0.10;0.10;;;;;;;19.27;88.11;99005.34;5066632;28;20106;-74
2021/07/29 08:59:08;;;;;;;0.20;0.20;;;;;;;19.08;88.28;98996.03;5066631;28;20025;-73
2021/07/29 09:01:52;;;;;;;0.20;0.20;;;;;;;18.85;88.27;98996.69;5065725;28;20484;-73
2021/07/29 09:04:18;;;;;;;0.20;0.20;;;;;;;18.62;88.30;98991.16;5066847;28;20017;-74
2021/07/29 09:06:57;;;;;;;0.10;0.10;;;;;;;18.48;88.50;98998.16;5066852;28;20083;-74
2021/07/29 09:09:49;;;;;;;0.20;0.20;;;;;;;18.34;88.99;98993.75;5067003;28;20021;-73
2021/07/29 09:12:17;;;;;;;0.20;0.20;;;;;;;18.24;89.13;98993.53;5064781;28;20088;-73
2021/07/29 09:14:44;;;;;;;0.20;0.20;;;;;;;18.17;89.41;98982.56;5065319;28;20024;-73
2021/07/29 09:17:09;;;;;;;0.20;0.20;;;;;;;18.15;90.16;98971.31;5066226;28;20025;-73
2021/07/29 09:19:36;;;;;;;0.20;0.20;;;;;;;18.16;90.22;98985.28;5064880;28;20153;-74
2021/07/29 09:22:06;;;;;;;0.10;0.10;;;;;;;18.11;90.53;98989.94;5066726;28;20017;-74
2021/07/29 09:24:31;;;;;;;0.20;0.20;;;;;;;17.95;90.06;99004.03;5065145;28;20036;-76
2021/07/29 09:26:58;;;;;;;0.20;0.20;;;;;;;17.76;89.79;98983.31;5065946;28;20085;-73
2021/07/29 09:29:25;;;;;;;0.20;0.20;;;;;;;17.58;89.94;98980.88;5065299;28;20048;-73
2021/07/29 09:32:03;;;;;;;0.20;0.20;;;;;;;17.41;90.24;98985.34;5067034;28;20104;-75
2021/07/29 09:34:41;;;;;;;0.20;0.20;;;;;;;17.54;90.86;98977.59;5067492;28;20477;-75
2021/07/29 09:37:07;;;;;;;0.10;0.10;;;;;;;18.03;91.80;98978.16;5066753;28;20067;-76
2021/07/29 09:39:32;;;;;;;0.10;0.10;;;;;;;18.97;92.52;98969.59;5065769;28;20024;-75
2021/07/29 09:42:14;;;;;;;0.10;0.10;;;;;;;20.14;91.10;98974.00;5064210;28;20029;-76
2021/07/29 09:44:43;;;;;;;0.10;0.10;;;;;;;20.35;88.70;98950.50;5066707;28;20027;-76
2021/07/29 09:47:09;;;;;;;0.15;0.15;;;;;;;20.72;88.84;98960.16;5066157;28;20048;-77
2021/07/29 09:49:36;;;;;;;0.10;0.10;;;;;;;21.04;87.54;98961.34;5066713;28;20122;-76
2021/07/29 09:52:03;;;;;;;0.10;0.10;;;;;;;21.33;87.29;98953.00;5066572;28;20032;-74
2021/07/29 09:54:35;;;;;;;0.10;0.10;;;;;;;21.57;85.19;98959.16;5066812;28;20046;-74
2021/07/29 09:57:01;;;;;;;0.10;0.10;;;;;;;21.53;84.27;98971.75;5067290;28;20025;-75
2021/07/29 09:59:26;;;;;;;0.52;0.52;;;;;;;21.52;83.06;98977.97;5067848;28;20099;-77
2021/07/29 10:01:51;;;;;;;0.10;0.10;;;;;;;21.60;74.48;98972.97;5067719;28;20024;-77
2021/07/29 10:04:27;;;;;;;0.55;0.55;;;;;;;21.44;70.34;98973.31;5067222;28;20029;-80
2021/07/29 10:06:55;;;;;;;0.20;0.20;;;;;;;21.57;73.51;98980.25;5064678;28;20166;-79
2021/07/29 10:09:22;;;;;;;0.10;0.10;;;;;;;22.23;71.43;98976.91;5064590;28;20072;-76
2021/07/29 10:11:52;;;;;;;0.10;0.10;;;;;;;22.71;69.87;98984.59;5064401;28;20035;-78
2021/07/29 10:14:46;;;;;;;0.30;0.30;;;;;;;23.10;68.51;98976.94;5066418;28;20103;-77
2021/07/29 10:17:11;;;;;;;0.10;0.10;;;;;;;23.49;65.27;98980.81;5065898;28;20043;-75
2021/07/29 10:20:11;;;;;;;0.10;0.10;;;;;;;23.62;60.77;98981.44;5065685;28;20029;-76
2021/07/29 10:22:37;;;;;;;0.10;0.10;;;;;;;23.63;63.91;98984.91;5064240;28;20099;-75
2021/07/29 10:25:02;;;;;;;0.10;0.10;;;;;;;23.82;61.70;98965.59;5066016;28;20397;-76
2021/07/29 10:27:28;;;;;;;0.10;0.10;;;;;;;24.37;62.52;98964.38;5065545;28;20551;-75
2021/07/29 10:30:20;;;;;;;0.10;0.10;;;;;;;25.04;58.40;98965.50;5066068;28;20548;-75
2021/07/29 10:32:50;;;;;;;0.10;0.10;;;;;;;25.50;61.00;98988.72;5061210;28;20071;-75
2021/07/29 10:35:31;;;;;;;0.10;0.10;;;;;;;25.90;59.65;98977.94;5065603;28;20041;-76
2021/07/29 10:37:57;;;;;;;0.10;0.10;;;;;;;25.53;50.81;98969.81;5067403;28;20025;-76
2021/07/29 10:40:33;;;;;;;0.10;0.10;;;;;;;24.22;56.01;98969.22;5070304;28;20035;-77
2021/07/29 10:43:24;;;;;;;0.10;0.10;;;;;;;23.19;57.62;98979.78;5070758;28;20033;-76
2021/07/29 10:45:56;;;;;;;0.20;0.20;;;;;;;22.98;55.46;98967.38;5070567;28;20021;-74
2021/07/29 10:48:51;;;;;;;0.10;0.10;;;;;;;22.21;56.05;98978.81;5070087;28;20057;-75
2021/07/29 10:51:18;;;;;;;0.10;0.10;;;;;;;21.47;60.80;98975.69;5070929;28;20075;-76
2021/07/29 10:53:45;;;;;;;0.10;0.10;;;;;;;20.75;59.26;98964.38;5070613;28;20024;-76
2021/07/29 10:56:12;;;;;;;0.10;0.10;;;;;;;20.24;60.56;98975.00;5070377;28;20061;-75
2021/07/29 10:58:39;;;;;;;0.10;0.10;;;;;;;19.76;60.78;98971.31;5070810;28;20017;-76
2021/07/29 11:01:04;;;;;;;0.10;0.10;;;;;;;19.55;60.39;98978.94;5070241;28;20021;-75
2021/07/29 11:03:30;;;;;;;0.20;0.20;;;;;;;19.42;61.46;98976.28;5070568;28;20048;-75
2021/07/29 11:06:03;;;;;;;0.10;0.10;;;;;;;19.26;61.27;98974.72;5070947;28;20025;-75
2021/07/29 11:08:29;;;;;;;0.15;0.15;;;;;;;19.25;62.85;98965.13;5068805;28;20054;-74
2021/07/29 11:10:58;;;;;;;0.40;0.40;;;;;;;19.21;62.24;98958.41;5071801;28;20044;-76
2021/07/29 11:13:24;;;;;;;0.20;0.20;;;;;;;19.10;63.07;98960.91;5073295;28;20024;-76
2021/07/29 11:15:50;;;;;;;0.10;0.10;;;;;;;18.81;64.70;98956.63;5071207;28;20021;-77
2021/07/29 11:18:17;;;;;;;0.20;0.20;;;;;;;18.60;63.54;98950.97;5071933;28;20061;-75
2021/07/29 11:20:43;;;;;;;0.10;0.10;;;;;;;18.41;65.01;98965.31;5072834;28;20492;-75
2021/07/29 11:23:13;;;;;;;0.10;0.10;;;;;;;18.20;64.82;98984.13;5074752;28;20025;-81
2021/07/29 11:25:54;;;;;;;0.20;0.20;;;;;;;17.69;66.87;98974.97;5069530;28;20025;-78
2021/07/29 11:28:20;;;;;;;0.20;0.20;;;;;;;17.21;68.19;98976.06;5068298;28;20115;-79
2021/07/29 11:30:46;;;;;;;0.20;0.20;;;;;;;16.83;68.83;98977.34;5070459;28;20028;-79
2021/07/29 11:33:21;;;;;;;0.20;0.20;;;;;;;16.53;70.97;98973.78;5070218;28;20025;-79